Tannersville, New York
Current Conditions -  °F | °C
As of 3:53 AM on Thursday 18 Dec 2014 (Local Time) from KPOU Reporting Station
Overcast Overcast  
Wind Chill:   Ceiling: 5000
Heat Index:   Visibility: 10mi
Dew Point: -4°   Wind: 12mph
Humidity: 57%   Direction: 260°W
Pressure: 29.87"   Gusts: NA
Location:  42.2°N, 74.13°W
Report Text: KPOU 180853Z AUTO 26010KT 10SM OVC050 04/M04 A2987 RMK AO2 SLP112 60000 T00391039 50008 TSNO
Loading
Personal Weather Stations






























Interactive Weather Map New forecast layout! Learn more

10-Day Weather Forecast

Advertisements
Track Severe Weather on mobile